createdAt,value
2023-01-28T00:01:18.160Z,3.28
2023-01-28T00:03:46.136Z,3.27
2023-01-28T00:06:16.286Z,3.20
2023-01-28T00:08:43.940Z,3.26
2023-01-28T00:11:14.039Z,3.35
2023-01-28T00:13:42.109Z,3.33
2023-01-28T00:16:10.614Z,3.35
2023-01-28T00:18:39.139Z,3.32
2023-01-28T00:21:09.523Z,3.34
2023-01-28T00:23:40.279Z,3.28
2023-01-28T00:26:11.222Z,3.23
2023-01-28T00:28:41.847Z,3.21
2023-01-28T00:31:10.740Z,3.24
2023-01-28T00:33:38.820Z,3.17
2023-01-28T00:36:07.624Z,3.16
2023-01-28T00:38:35.757Z,3.07
2023-01-28T00:41:15.685Z,3.11
2023-01-28T00:43:44.766Z,3.07
2023-01-28T00:46:14.081Z,2.99
2023-01-28T00:48:43.506Z,2.96
2023-01-28T00:51:13.523Z,2.88
2023-01-28T00:53:42.100Z,2.83
2023-01-28T00:56:12.888Z,2.69
2023-01-28T00:58:42.727Z,2.64
2023-01-28T01:01:12.311Z,2.53
2023-01-28T01:03:40.211Z,2.60
2023-01-28T01:06:08.983Z,2.60
2023-01-28T01:08:39.902Z,2.72
2023-01-28T01:11:09.161Z,2.69
2023-01-28T01:13:37.851Z,2.63
2023-01-28T01:16:09.717Z,2.59
2023-01-28T01:18:42.058Z,2.63
2023-01-28T01:21:11.594Z,2.73
2023-01-28T01:23:39.417Z,2.71
2023-01-28T01:26:08.570Z,2.75
2023-01-28T01:28:36.672Z,2.76
2023-01-28T01:31:07.573Z,2.74
2023-01-28T01:33:35.920Z,2.70
2023-01-28T01:36:03.875Z,2.79
2023-01-28T01:38:31.550Z,2.72
2023-01-28T01:41:00.074Z,2.65
2023-01-28T01:43:50.667Z,2.50
2023-01-28T01:46:23.666Z,2.87
2023-01-28T01:48:53.332Z,2.86
2023-01-28T01:51:27.067Z,2.90
2023-01-28T01:53:58.093Z,2.78
2023-01-28T01:56:31.698Z,3.01
2023-01-28T01:59:00.745Z,3.08
2023-01-28T02:01:32.471Z,3.12
2023-01-28T02:04:07.034Z,3.04
2023-01-28T02:06:37.613Z,3.01
2023-01-28T02:09:22.475Z,2.95
2023-01-28T02:11:52.339Z,3.05
2023-01-28T02:14:30.671Z,3.01
2023-01-28T02:17:01.640Z,3.05
2023-01-28T02:19:38.213Z,3.00
2023-01-28T02:22:27.881Z,2.94
2023-01-28T02:25:18.730Z,3.00
2023-01-28T02:28:10.049Z,2.94
2023-01-28T02:30:41.662Z,2.83
2023-01-28T02:33:18.373Z,2.83
2023-01-28T02:35:53.426Z,2.79
2023-01-28T02:38:27.613Z,2.89
2023-01-28T02:41:06.396Z,2.88
2023-01-28T02:43:38.513Z,2.74
2023-01-28T02:46:34.493Z,2.67
2023-01-28T02:49:05.876Z,2.67
2023-01-28T02:51:47.423Z,2.74
2023-01-28T02:54:25.163Z,2.54
2023-01-28T02:57:01.030Z,2.73
2023-01-28T02:59:37.079Z,2.63
2023-01-28T03:02:17.632Z,2.64
2023-01-28T03:04:51.387Z,2.76
2023-01-28T03:07:20.902Z,2.72
2023-01-28T03:09:51.129Z,2.86
2023-01-28T03:12:40.363Z,2.88
2023-01-28T03:15:32.153Z,2.85
2023-01-28T03:18:21.412Z,2.80
2023-01-28T03:21:13.281Z,2.84
2023-01-28T03:24:06.174Z,2.81
2023-01-28T03:26:57.373Z,2.84
2023-01-28T03:29:44.958Z,2.67
2023-01-28T03:32:34.681Z,2.85
2023-01-28T03:35:20.917Z,2.89
2023-01-28T03:37:48.797Z,2.84
2023-01-28T03:40:22.756Z,2.83
2023-01-28T03:42:52.206Z,2.75
2023-01-28T03:45:33.020Z,2.87
2023-01-28T03:48:04.012Z,2.88
2023-01-28T03:50:31.925Z,2.89
2023-01-28T03:53:13.509Z,2.99
2023-01-28T03:55:54.151Z,2.74
2023-01-28T03:58:23.339Z,2.80
2023-01-28T04:00:52.082Z,2.90
2023-01-28T04:03:22.340Z,2.93
2023-01-28T04:06:00.826Z,2.85
2023-01-28T04:08:59.210Z,2.86
2023-01-28T04:11:46.014Z,2.82
2023-01-28T04:14:18.560Z,2.87
2023-01-28T04:16:52.019Z,2.88
2023-01-28T04:19:21.739Z,2.77
2023-01-28T04:21:49.885Z,2.65
2023-01-28T04:24:18.102Z,2.74
2023-01-28T04:26:45.909Z,2.83
2023-01-28T04:29:13.834Z,2.85
2023-01-28T04:31:41.612Z,2.97
2023-01-28T04:34:20.329Z,2.96
2023-01-28T04:37:11.018Z,2.94
2023-01-28T04:39:45.414Z,2.97
2023-01-28T04:42:39.333Z,2.93
2023-01-28T04:45:19.313Z,2.86
2023-01-28T04:48:10.397Z,2.89
2023-01-28T04:51:07.687Z,2.91
2023-01-28T04:53:50.667Z,2.91
2023-01-28T04:56:30.749Z,2.94
2023-01-28T04:58:58.444Z,2.96
2023-01-28T05:01:27.306Z,2.96
2023-01-28T05:03:55.015Z,2.88
2023-01-28T05:06:26.205Z,3.01
2023-01-28T05:09:15.526Z,2.86
2023-01-28T05:11:43.341Z,2.98
2023-01-28T05:14:11.136Z,2.96
2023-01-28T05:16:42.843Z,2.95
2023-01-28T05:19:12.181Z,2.95
2023-01-28T05:21:42.809Z,2.84
2023-01-28T05:24:21.489Z,2.87
2023-01-28T05:26:49.369Z,2.80
2023-01-28T05:29:18.067Z,2.84
2023-01-28T05:31:48.802Z,2.93
2023-01-28T05:34:18.268Z,2.90
2023-01-28T05:36:46.217Z,2.86
2023-01-28T05:39:28.947Z,2.85
2023-01-28T05:41:56.667Z,2.82
2023-01-28T05:44:24.758Z,2.69
2023-01-28T05:47:18.527Z,2.82
2023-01-28T05:49:52.464Z,2.88
2023-01-28T05:52:38.133Z,2.86
2023-01-28T05:55:11.359Z,2.65
2023-01-28T05:57:39.003Z,2.74
2023-01-28T06:00:09.777Z,2.81
2023-01-28T06:02:42.391Z,2.89
2023-01-28T06:05:12.405Z,2.88
2023-01-28T06:07:41.470Z,2.82
2023-01-28T06:10:13.976Z,2.87
2023-01-28T06:12:41.966Z,2.85
2023-01-28T06:15:39.327Z,2.71
2023-01-28T06:18:18.907Z,2.67
2023-01-28T06:20:46.682Z,2.72
2023-01-28T06:23:14.459Z,2.62
2023-01-28T06:25:43.559Z,2.71
2023-01-28T06:28:13.722Z,2.72
2023-01-28T06:30:41.560Z,2.78
2023-01-28T06:33:09.211Z,2.71
2023-01-28T06:35:36.902Z,2.92
2023-01-28T06:38:05.052Z,2.90
2023-01-28T06:40:32.742Z,2.79
2023-01-28T06:43:01.691Z,2.92
2023-01-28T06:45:29.396Z,2.80
2023-01-28T06:47:57.007Z,2.90
2023-01-28T06:50:25.068Z,2.89
2023-01-28T06:52:52.738Z,2.89
2023-01-28T06:55:20.431Z,2.92
2023-01-28T06:57:48.236Z,2.92
2023-01-28T07:00:18.706Z,2.94
2023-01-28T07:02:46.465Z,2.88
2023-01-28T07:05:14.163Z,2.88
2023-01-28T07:07:42.264Z,2.94
2023-01-28T07:10:11.583Z,2.90
2023-01-28T07:12:40.279Z,2.88
2023-01-28T07:15:10.841Z,2.70
2023-01-28T07:17:42.084Z,2.72
2023-01-28T07:20:12.174Z,2.87
2023-01-28T07:22:41.997Z,2.84
2023-01-28T07:25:12.059Z,2.91
2023-01-28T07:27:39.786Z,2.88
2023-01-28T07:30:08.578Z,2.88
2023-01-28T07:32:36.305Z,2.90
2023-01-28T07:35:05.874Z,2.75
2023-01-28T07:37:33.778Z,2.87
2023-01-28T07:40:01.531Z,2.93
2023-01-28T07:42:29.631Z,2.86
2023-01-28T07:44:57.494Z,2.92
2023-01-28T07:47:25.187Z,2.90
2023-01-28T07:49:52.879Z,2.97
2023-01-28T07:52:21.864Z,2.99
2023-01-28T07:54:49.509Z,2.88
2023-01-28T07:57:23.467Z,3.03
2023-01-28T07:59:51.678Z,2.95
2023-01-28T08:02:19.645Z,3.15
2023-01-28T08:04:47.668Z,3.03
2023-01-28T08:07:15.447Z,3.17
2023-01-28T08:09:44.381Z,2.74
2023-01-28T08:12:12.019Z,3.18
2023-01-28T08:14:39.718Z,3.32
2023-01-28T08:17:07.350Z,3.41
2023-01-28T08:19:34.978Z,3.40
2023-01-28T08:22:02.567Z,3.43
2023-01-28T08:24:30.336Z,3.40
2023-01-28T08:26:59.383Z,3.24
2023-01-28T08:29:27.019Z,3.26
2023-01-28T08:31:54.652Z,3.33
2023-01-28T08:34:22.533Z,3.54
2023-01-28T08:36:50.253Z,3.33
2023-01-28T08:39:17.870Z,3.44
2023-01-28T08:41:45.489Z,3.65
2023-01-28T08:44:14.416Z,3.62
2023-01-28T08:46:42.093Z,3.69
2023-01-28T08:49:09.868Z,3.58
2023-01-28T08:51:37.621Z,3.74
2023-01-28T08:54:05.305Z,3.73
2023-01-28T08:56:33.174Z,3.77
2023-01-28T08:59:00.797Z,3.44
2023-01-28T09:01:29.779Z,3.92
2023-01-28T09:03:57.437Z,4.07
2023-01-28T09:06:25.169Z,4.03
2023-01-28T09:08:52.797Z,3.83
2023-01-28T09:11:20.429Z,3.93
2023-01-28T09:13:48.059Z,3.73
2023-01-28T09:16:15.802Z,3.91
2023-01-28T09:18:45.092Z,4.07
2023-01-28T09:21:12.773Z,4.08
2023-01-28T09:23:40.415Z,4.12
2023-01-28T09:26:09.042Z,4.21
2023-01-28T09:28:38.298Z,4.25
2023-01-28T09:31:08.252Z,4.31
2023-01-28T09:33:37.457Z,4.38
2023-01-28T09:36:08.774Z,4.35
2023-01-28T09:38:36.500Z,4.54
2023-01-28T09:41:16.267Z,4.54
2023-01-28T09:43:57.128Z,4.55
2023-01-28T09:46:32.074Z,4.55
2023-01-28T09:49:02.282Z,4.50
2023-01-28T09:51:35.453Z,4.27
2023-01-28T09:54:07.464Z,4.39
2023-01-28T09:56:41.230Z,4.21
2023-01-28T09:59:20.170Z,4.22
2023-01-28T10:01:55.381Z,4.15
2023-01-28T10:04:34.130Z,4.26
2023-01-28T10:07:18.457Z,4.39
2023-01-28T10:09:52.082Z,4.09
2023-01-28T10:12:52.685Z,4.31
2023-01-28T10:15:31.850Z,4.37
2023-01-28T10:18:16.594Z,4.12
2023-01-28T10:20:49.632Z,4.28
2023-01-28T10:23:23.529Z,4.30
2023-01-28T10:25:51.183Z,4.52
2023-01-28T10:28:22.064Z,4.32
2023-01-28T10:30:50.158Z,4.50
2023-01-28T10:33:21.400Z,4.58
2023-01-28T10:35:49.631Z,4.36
2023-01-28T10:38:25.707Z,4.31
2023-01-28T10:40:53.779Z,4.58
2023-01-28T10:43:31.106Z,4.44
2023-01-28T10:46:03.621Z,4.24
2023-01-28T10:48:35.056Z,3.96
2023-01-28T10:51:06.057Z,4.24
2023-01-28T10:53:40.660Z,4.48
2023-01-28T10:56:11.098Z,4.47
2023-01-28T10:58:59.810Z,4.35
2023-01-28T11:01:40.094Z,4.62
2023-01-28T11:04:16.115Z,4.30
2023-01-28T11:06:43.863Z,4.54
2023-01-28T11:09:24.512Z,4.44
2023-01-28T11:11:52.207Z,4.52
2023-01-28T11:14:22.192Z,4.64
2023-01-28T11:16:52.783Z,4.66
2023-01-28T11:19:22.308Z,4.75
2023-01-28T11:21:53.092Z,4.37
2023-01-28T11:24:26.896Z,4.16
2023-01-28T11:26:57.461Z,4.05
2023-01-28T11:29:31.957Z,4.05
2023-01-28T11:32:00.729Z,3.93
2023-01-28T11:34:30.238Z,4.01
2023-01-28T11:37:04.354Z,3.98
2023-01-28T11:39:33.395Z,4.10
2023-01-28T11:42:17.130Z,4.21
2023-01-28T11:44:45.209Z,4.28
2023-01-28T11:47:45.079Z,4.40
2023-01-28T11:50:26.482Z,4.41
2023-01-28T11:53:08.046Z,4.46
2023-01-28T11:55:44.713Z,4.62
2023-01-28T11:58:22.496Z,4.40
2023-01-28T12:01:03.549Z,4.40
2023-01-28T12:03:44.124Z,4.47
2023-01-28T12:06:26.692Z,4.57
2023-01-28T12:09:01.550Z,4.57
2023-01-28T12:11:55.782Z,4.46
2023-01-28T12:14:31.047Z,4.05
2023-01-28T12:17:08.919Z,4.20
2023-01-28T12:19:56.947Z,4.28
2023-01-28T12:22:40.138Z,4.17
2023-01-28T12:25:22.281Z,4.38
2023-01-28T12:28:01.264Z,4.43
2023-01-28T12:30:44.658Z,4.36
2023-01-28T12:33:36.746Z,4.10
2023-01-28T12:36:17.238Z,4.27
2023-01-28T12:38:55.525Z,4.24
2023-01-28T12:41:29.509Z,4.30
2023-01-28T12:44:03.468Z,4.21
2023-01-28T12:46:39.851Z,4.23
2023-01-28T12:49:12.954Z,4.26
2023-01-28T12:51:52.036Z,4.01
2023-01-28T12:54:25.780Z,3.80
2023-01-28T12:56:55.224Z,3.98
2023-01-28T12:59:30.118Z,3.99
2023-01-28T13:02:06.601Z,3.91
2023-01-28T13:04:43.347Z,3.64
2023-01-28T13:07:15.290Z,3.96
2023-01-28T13:09:50.622Z,3.59
2023-01-28T13:12:19.605Z,3.75
2023-01-28T13:14:49.550Z,4.06
2023-01-28T13:17:27.288Z,4.01
2023-01-28T13:19:55.017Z,4.07
2023-01-28T13:22:31.843Z,3.96
2023-01-28T13:25:14.964Z,4.13
2023-01-28T13:27:42.800Z,4.00
2023-01-28T13:30:26.750Z,4.00
2023-01-28T13:32:59.776Z,3.79
2023-01-28T13:35:36.397Z,3.76
2023-01-28T13:38:10.130Z,3.84
2023-01-28T13:40:41.592Z,3.82
2023-01-28T13:43:27.042Z,3.05
2023-01-28T13:46:01.178Z,3.41
2023-01-28T13:48:33.538Z,3.60
2023-01-28T13:51:03.065Z,3.67
2023-01-28T13:53:41.169Z,3.67
2023-01-28T13:56:19.494Z,3.91
2023-01-28T13:59:10.124Z,3.69
2023-01-28T14:02:03.019Z,3.64
2023-01-28T14:05:00.272Z,3.71
2023-01-28T14:07:41.479Z,3.64
2023-01-28T14:10:45.116Z,3.61
2023-01-28T14:13:45.868Z,3.56
2023-01-28T14:16:31.310Z,3.43
2023-01-28T14:19:03.144Z,3.17
2023-01-28T14:21:34.907Z,3.15
2023-01-28T14:24:02.992Z,2.77
2023-01-28T14:26:41.710Z,2.86
2023-01-28T14:29:19.644Z,2.67
2023-01-28T14:31:48.146Z,2.78
2023-01-28T14:34:25.264Z,2.84
2023-01-28T14:36:57.040Z,3.01
2023-01-28T14:39:28.229Z,3.01
2023-01-28T14:41:59.249Z,2.96
2023-01-28T14:44:33.409Z,2.88
2023-01-28T14:47:30.523Z,2.99
2023-01-28T14:50:17.760Z,2.94
2023-01-28T14:53:02.312Z,2.93
2023-01-28T14:55:38.279Z,2.72
2023-01-28T14:58:10.000Z,2.76
2023-01-28T15:00:39.526Z,2.66
2023-01-28T15:03:24.927Z,2.39
2023-01-28T15:06:07.492Z,2.56
2023-01-28T15:08:35.816Z,2.69
2023-01-28T15:11:04.219Z,2.38
2023-01-28T15:13:37.449Z,2.40
2023-01-28T15:16:06.326Z,2.46
2023-01-28T15:18:37.260Z,2.49
2023-01-28T15:21:06.600Z,2.45
2023-01-28T15:23:36.130Z,2.46
2023-01-28T15:26:07.213Z,2.43
2023-01-28T15:28:37.836Z,2.42
2023-01-28T15:31:06.071Z,2.53
2023-01-28T15:33:33.844Z,2.58
2023-01-28T15:36:01.631Z,2.48
2023-01-28T15:38:30.737Z,2.33
2023-01-28T15:41:01.226Z,2.30
2023-01-28T15:43:31.426Z,2.30
2023-01-28T15:46:00.478Z,2.10
2023-01-28T15:48:30.141Z,2.02
2023-01-28T15:51:03.084Z,2.11
2023-01-28T15:53:42.929Z,1.88
2023-01-28T15:56:12.837Z,1.98
2023-01-28T15:58:42.222Z,1.97
2023-01-28T16:01:21.419Z,2.06
2023-01-28T16:04:01.927Z,2.02
2023-01-28T16:06:34.115Z,1.95
2023-01-28T16:09:05.795Z,2.01
2023-01-28T16:11:41.252Z,2.05
2023-01-28T16:14:25.144Z,1.97
2023-01-28T16:16:55.634Z,1.65
2023-01-28T16:19:33.630Z,1.89
2023-01-28T16:22:02.389Z,1.88
2023-01-28T16:24:36.090Z,1.96
2023-01-28T16:27:06.806Z,1.97
2023-01-28T16:29:34.579Z,1.86
2023-01-28T16:32:03.648Z,1.81
2023-01-28T16:34:31.400Z,1.89
2023-01-28T16:36:59.918Z,1.88
2023-01-28T16:39:27.566Z,1.92
2023-01-28T16:41:56.859Z,1.91
2023-01-28T16:44:24.624Z,1.85
2023-01-28T16:46:52.332Z,1.82
2023-01-28T16:49:19.979Z,1.70
2023-01-28T16:51:47.746Z,1.73
2023-01-28T16:54:17.334Z,1.85
2023-01-28T16:56:46.754Z,1.78
2023-01-28T16:59:17.121Z,1.71
2023-01-28T17:01:45.665Z,1.75
2023-01-28T17:04:13.639Z,1.73
2023-01-28T17:06:44.180Z,1.68
2023-01-28T17:09:12.991Z,1.71
2023-01-28T17:11:41.080Z,1.70
2023-01-28T17:14:09.430Z,1.75
2023-01-28T17:16:38.685Z,1.77
2023-01-28T17:19:06.565Z,1.80
2023-01-28T17:21:34.211Z,1.70
2023-01-28T17:24:03.017Z,1.60
2023-01-28T17:26:30.956Z,1.61
2023-01-28T17:28:58.595Z,1.61
2023-01-28T17:31:27.279Z,1.67
2023-01-28T17:33:58.064Z,1.61
2023-01-28T17:36:26.893Z,1.65
2023-01-28T17:38:55.056Z,1.61
2023-01-28T17:41:23.048Z,1.60
2023-01-28T17:43:51.617Z,1.58
2023-01-28T17:46:20.070Z,1.59
2023-01-28T17:48:47.923Z,1.47
2023-01-28T17:51:18.654Z,1.62
2023-01-28T17:53:47.554Z,1.61
2023-01-28T17:56:19.314Z,1.59
2023-01-28T17:58:50.884Z,1.58
2023-01-28T18:01:18.684Z,1.56
2023-01-28T18:03:46.538Z,1.52
2023-01-28T18:06:14.200Z,1.50
2023-01-28T18:08:43.898Z,1.40
2023-01-28T18:11:14.025Z,1.33
2023-01-28T18:13:43.044Z,1.34
2023-01-28T18:16:15.902Z,1.40
2023-01-28T18:18:43.834Z,1.38
2023-01-28T18:21:21.045Z,1.32
2023-01-28T18:23:53.532Z,1.49
2023-01-28T18:26:22.108Z,1.51
2023-01-28T18:28:49.781Z,1.51
2023-01-28T18:31:17.523Z,1.47
2023-01-28T18:33:45.247Z,1.44
2023-01-28T18:36:13.022Z,1.37
2023-01-28T18:38:40.688Z,1.23
2023-01-28T18:41:09.694Z,1.21
2023-01-28T18:43:37.381Z,1.31
2023-01-28T18:46:11.546Z,1.13
2023-01-28T18:48:39.495Z,1.26
2023-01-28T18:51:17.454Z,1.36
2023-01-28T18:53:57.682Z,1.04
2023-01-28T18:56:26.911Z,1.16
2023-01-28T18:58:57.640Z,1.11
2023-01-28T19:01:25.303Z,1.26
2023-01-28T19:03:54.444Z,1.21
2023-01-28T19:06:22.218Z,1.20
2023-01-28T19:08:53.481Z,1.31
2023-01-28T19:11:21.800Z,1.39
2023-01-28T19:13:51.009Z,1.36
2023-01-28T19:16:19.200Z,1.35
2023-01-28T19:18:52.791Z,1.31
2023-01-28T19:21:20.518Z,1.32
2023-01-28T19:23:50.393Z,1.31
2023-01-28T19:26:21.234Z,1.27
2023-01-28T19:28:51.085Z,1.27
2023-01-28T19:31:19.642Z,1.32
2023-01-28T19:33:47.391Z,1.38
2023-01-28T19:36:15.208Z,1.31
2023-01-28T19:38:42.891Z,1.30
2023-01-28T19:41:13.375Z,1.37
2023-01-28T19:43:41.077Z,1.40
2023-01-28T19:46:14.408Z,1.31
2023-01-28T19:48:42.138Z,1.25
2023-01-28T19:51:10.819Z,1.16
2023-01-28T19:53:40.084Z,1.32
2023-01-28T19:56:10.507Z,1.28
2023-01-28T19:58:39.772Z,1.35
2023-01-28T20:01:08.674Z,1.29
2023-01-28T20:03:38.386Z,1.30
2023-01-28T20:06:07.950Z,1.37
2023-01-28T20:08:35.612Z,1.26
2023-01-28T20:11:05.152Z,1.15
2023-01-28T20:13:34.049Z,1.29
2023-01-28T20:16:05.837Z,1.12
2023-01-28T20:18:33.945Z,1.17
2023-01-28T20:21:04.920Z,1.06
2023-01-28T20:23:33.598Z,1.20
2023-01-28T20:26:01.901Z,1.23
2023-01-28T20:28:29.769Z,1.18
2023-01-28T20:30:57.491Z,1.05
2023-01-28T20:33:25.328Z,1.06
2023-01-28T20:35:53.068Z,1.09
2023-01-28T20:38:22.048Z,1.16
2023-01-28T20:40:49.688Z,1.20
2023-01-28T20:43:17.353Z,1.23
2023-01-28T20:45:45.015Z,1.18
2023-01-28T20:48:12.774Z,1.16
2023-01-28T20:50:40.557Z,1.13
2023-01-28T20:53:08.203Z,1.02
2023-01-28T20:55:37.230Z,1.05
2023-01-28T20:58:05.288Z,1.05
2023-01-28T21:00:32.957Z,1.04
2023-01-28T21:03:00.710Z,1.09
2023-01-28T21:05:28.370Z,1.02
2023-01-28T21:07:56.029Z,0.97
2023-01-28T21:10:23.664Z,1.01
2023-01-28T21:12:52.673Z,1.00
2023-01-28T21:15:20.281Z,1.02
2023-01-28T21:17:47.927Z,0.94
2023-01-28T21:20:16.240Z,0.91
2023-01-28T21:22:44.031Z,0.93
2023-01-28T21:25:11.687Z,0.93
2023-01-28T21:27:39.378Z,0.94
2023-01-28T21:30:09.960Z,0.94
2023-01-28T21:32:37.621Z,1.04
2023-01-28T21:35:05.622Z,0.42
2023-01-28T21:37:33.293Z,0.84
2023-01-28T21:40:00.955Z,0.91
2023-01-28T21:42:28.997Z,0.54
2023-01-28T21:44:56.601Z,0.99
2023-01-28T21:47:25.699Z,0.96
2023-01-28T21:49:53.320Z,0.85
2023-01-28T21:52:22.037Z,0.88
2023-01-28T21:54:49.654Z,0.74
2023-01-28T21:57:17.281Z,0.74
2023-01-28T21:59:43.917Z,0.72
2023-01-28T22:02:13.757Z,0.70
2023-01-28T22:04:44.431Z,0.59
2023-01-28T22:07:14.125Z,0.50
2023-01-28T22:09:42.347Z,0.47
2023-01-28T22:12:10.502Z,0.56
2023-01-28T22:14:39.723Z,0.52
2023-01-28T22:17:09.144Z,0.53
2023-01-28T22:19:36.902Z,0.49
2023-01-28T22:22:06.402Z,0.42
2023-01-28T22:24:34.320Z,0.47
2023-01-28T22:27:01.998Z,0.55
2023-01-28T22:29:29.635Z,0.59
2023-01-28T22:31:57.337Z,0.58
2023-01-28T22:34:25.246Z,0.66
2023-01-28T22:36:52.918Z,0.73
2023-01-28T22:39:21.977Z,0.69
2023-01-28T22:41:49.645Z,0.63
2023-01-28T22:44:19.620Z,0.43
2023-01-28T22:46:48.030Z,0.58
2023-01-28T22:49:15.795Z,0.53
2023-01-28T22:51:43.843Z,0.50
2023-01-28T22:54:13.619Z,0.53
2023-01-28T22:56:42.661Z,0.28
2023-01-28T22:59:10.992Z,0.08
2023-01-28T23:01:39.916Z,0.23
2023-01-28T23:04:07.674Z,0.15
2023-01-28T23:06:37.093Z,0.15
2023-01-28T23:09:05.010Z,0.14
2023-01-28T23:11:33.208Z,0.09
2023-01-28T23:14:21.998Z,0.09
2023-01-28T23:17:16.633Z,0.11
2023-01-28T23:20:02.164Z,0.11
2023-01-28T23:22:50.959Z,0.15
2023-01-28T23:25:19.282Z,0.17
2023-01-28T23:27:46.923Z,0.10
2023-01-28T23:30:16.443Z,0.08
2023-01-28T23:32:48.124Z,-0.05
2023-01-28T23:35:16.404Z,0.16
2023-01-28T23:37:44.240Z,0.24
2023-01-28T23:40:13.502Z,0.36
2023-01-28T23:42:41.667Z,0.31
2023-01-28T23:45:10.418Z,0.41
2023-01-28T23:47:39.403Z,0.40
2023-01-28T23:50:07.606Z,0.38
2023-01-28T23:52:35.263Z,0.37
2023-01-28T23:55:03.106Z,0.43
2023-01-28T23:57:30.817Z,0.46
2023-01-28T23:59:58.467Z,0.39
